createdAt,value
2023-04-12T00:01:47.541Z,1.10
2023-04-12T00:04:27.117Z,1.10
2023-04-12T00:07:01.179Z,0.87
2023-04-12T00:09:36.344Z,0.90
2023-04-12T00:12:09.549Z,0.73
2023-04-12T00:14:42.963Z,1.30
2023-04-12T00:17:16.347Z,0.93
2023-04-12T00:19:50.177Z,0.87
2023-04-12T00:22:23.511Z,0.87
2023-04-12T00:24:56.917Z,0.90
2023-04-12T00:27:30.372Z,1.20
2023-04-12T00:30:04.052Z,0.60
2023-04-12T00:32:37.337Z,1.33
2023-04-12T00:35:10.619Z,1.20
2023-04-12T00:37:43.812Z,0.87
2023-04-12T00:40:17.145Z,0.93
2023-04-12T00:42:50.483Z,1.37
2023-04-12T00:45:23.696Z,1.33
2023-04-12T00:47:57.466Z,0.83
2023-04-12T00:50:30.724Z,0.70
2023-04-12T00:53:04.606Z,0.90
2023-04-12T00:55:38.075Z,0.70
2023-04-12T00:58:11.280Z,1.63
2023-04-12T01:00:53.057Z,1.87
2023-04-12T01:03:27.960Z,1.07
2023-04-12T01:06:01.363Z,1.07
2023-04-12T01:09:00.849Z,0.87
2023-04-12T01:11:39.372Z,1.23
2023-04-12T01:14:16.357Z,0.60
2023-04-12T01:16:51.307Z,0.93
2023-04-12T01:19:36.612Z,0.97
2023-04-12T01:22:28.044Z,1.37
2023-04-12T01:25:24.162Z,0.93
2023-04-12T01:27:58.566Z,1.03
2023-04-12T01:30:32.433Z,1.23
2023-04-12T01:33:07.442Z,1.30
2023-04-12T01:35:41.241Z,1.37
2023-04-12T01:38:14.493Z,0.80
2023-04-12T01:40:49.128Z,1.40
2023-04-12T01:43:22.514Z,0.90
2023-04-12T01:45:55.982Z,0.97
2023-04-12T01:48:29.218Z,1.57
2023-04-12T01:51:02.448Z,0.80
2023-04-12T01:53:48.175Z,1.53
2023-04-12T01:56:23.063Z,1.07
2023-04-12T01:58:57.234Z,1.00
2023-04-12T02:01:31.054Z,1.43
2023-04-12T02:04:05.649Z,0.60
2023-04-12T02:06:39.604Z,0.60
2023-04-12T02:09:12.795Z,0.90
2023-04-12T02:11:49.749Z,1.37
2023-04-12T02:14:23.097Z,0.50
2023-04-12T02:16:58.277Z,1.70
2023-04-12T02:19:32.336Z,1.20
2023-04-12T02:22:06.091Z,0.90
2023-04-12T02:24:39.504Z,0.70
2023-04-12T02:27:12.745Z,1.37
2023-04-12T02:29:45.962Z,0.93
2023-04-12T02:32:19.116Z,0.97
2023-04-12T02:34:52.335Z,0.80
2023-04-12T02:37:27.542Z,0.63
2023-04-12T02:40:02.463Z,0.60
2023-04-12T02:42:35.917Z,0.90
2023-04-12T02:45:09.498Z,1.90
2023-04-12T02:47:42.766Z,1.10
2023-04-12T02:50:16.004Z,0.80
2023-04-12T02:52:49.194Z,0.70
2023-04-12T02:55:22.362Z,0.93
2023-04-12T02:57:55.531Z,0.70
2023-04-12T03:00:28.805Z,0.60
2023-04-12T03:03:03.110Z,0.60
2023-04-12T03:05:38.006Z,0.60
2023-04-12T03:08:11.289Z,0.60
2023-04-12T03:10:44.479Z,0.40
2023-04-12T03:13:17.650Z,2.93
2023-04-12T03:15:55.540Z,0.60
2023-04-12T03:18:28.770Z,0.83
2023-04-12T03:21:02.465Z,0.50
2023-04-12T03:23:35.719Z,0.70
2023-04-12T03:26:08.887Z,0.70
2023-04-12T03:28:42.832Z,0.97
2023-04-12T03:31:21.547Z,1.60
2023-04-12T03:33:55.054Z,0.90
2023-04-12T03:36:29.499Z,0.70
2023-04-12T03:39:02.727Z,0.60
2023-04-12T03:41:35.988Z,0.80
2023-04-12T03:44:09.235Z,0.40
2023-04-12T03:46:42.453Z,0.63
2023-04-12T03:49:16.656Z,0.63
2023-04-12T03:51:50.835Z,1.77
2023-04-12T03:54:24.265Z,0.70
2023-04-12T03:56:57.616Z,0.67
2023-04-12T03:59:30.860Z,0.90
2023-04-12T04:02:04.159Z,1.37
2023-04-12T04:04:38.080Z,0.77
2023-04-12T04:07:12.417Z,0.50
2023-04-12T04:09:45.731Z,0.83
2023-04-12T04:12:19.380Z,0.60
2023-04-12T04:14:52.546Z,0.40
2023-04-12T04:17:25.917Z,0.40
2023-04-12T04:19:59.165Z,0.50
2023-04-12T04:22:32.554Z,0.67
2023-04-12T04:25:06.085Z,0.80
2023-04-12T04:27:39.283Z,0.70
2023-04-12T04:30:12.894Z,1.23
2023-04-12T04:32:46.203Z,0.80
2023-04-12T04:35:19.822Z,0.80
2023-04-12T04:37:53.827Z,0.77
2023-04-12T04:40:27.071Z,0.70
2023-04-12T04:43:00.299Z,1.27
2023-04-12T04:45:33.622Z,0.50
2023-04-12T04:48:07.174Z,2.20
2023-04-12T04:50:40.516Z,0.80
2023-04-12T04:53:13.947Z,0.90
2023-04-12T04:55:47.737Z,1.63
2023-04-12T04:58:21.389Z,0.60
2023-04-12T05:00:57.643Z,0.70
2023-04-12T05:03:31.208Z,0.87
2023-04-12T05:06:04.632Z,0.77
2023-04-12T05:08:38.063Z,1.03
2023-04-12T05:11:11.269Z,2.57
2023-04-12T05:13:44.468Z,3.80
2023-04-12T05:16:17.732Z,3.53
2023-04-12T05:18:51.267Z,2.50
2023-04-12T05:21:24.669Z,4.90
2023-04-12T05:23:57.942Z,6.43
2023-04-12T05:26:31.529Z,4.43
2023-04-12T05:29:06.207Z,1.63
2023-04-12T05:31:39.384Z,2.10
2023-04-12T05:34:12.599Z,1.53
2023-04-12T05:36:46.031Z,1.00
2023-04-12T05:39:20.719Z,1.20
2023-04-12T05:41:54.576Z,0.80
2023-04-12T05:44:27.788Z,0.83
2023-04-12T05:47:00.999Z,1.80
2023-04-12T05:49:34.190Z,1.90
2023-04-12T05:52:07.450Z,0.80
2023-04-12T05:54:41.781Z,1.10
2023-04-12T05:57:15.924Z,1.07
2023-04-12T05:59:49.100Z,1.23
2023-04-12T06:02:26.182Z,1.27
2023-04-12T06:04:59.791Z,1.07
2023-04-12T06:07:33.022Z,1.27
2023-04-12T06:10:07.119Z,0.87
2023-04-12T06:12:40.308Z,1.23
2023-04-12T06:15:13.546Z,1.10
2023-04-12T06:17:46.831Z,1.00
2023-04-12T06:20:20.226Z,1.07
2023-04-12T06:22:53.428Z,0.73
2023-04-12T06:25:26.601Z,1.20
2023-04-12T06:27:59.823Z,1.10
2023-04-12T06:30:33.046Z,1.30
2023-04-12T06:33:06.297Z,0.80
2023-04-12T06:35:39.559Z,0.87
2023-04-12T06:38:12.838Z,1.30
2023-04-12T06:40:46.166Z,0.80
2023-04-12T06:43:20.377Z,1.57
2023-04-12T06:45:53.688Z,0.50
2023-04-12T06:48:26.913Z,0.77
2023-04-12T06:51:00.423Z,1.10
2023-04-12T06:53:35.097Z,2.00
2023-04-12T06:56:08.539Z,1.43
2023-04-12T06:58:41.734Z,2.10
2023-04-12T07:01:14.983Z,1.27
2023-04-12T07:03:48.388Z,1.40
2023-04-12T07:06:25.576Z,1.13
2023-04-12T07:08:59.541Z,0.90
2023-04-12T07:11:32.972Z,1.20
2023-04-12T07:14:06.181Z,1.13
2023-04-12T07:16:39.451Z,1.07
2023-04-12T07:19:12.986Z,1.20
2023-04-12T07:21:46.188Z,1.47
2023-04-12T07:24:19.343Z,2.00
2023-04-12T07:26:55.788Z,1.00
2023-04-12T07:29:28.951Z,1.13
2023-04-12T07:32:02.124Z,1.17
2023-04-12T07:34:36.641Z,1.17
2023-04-12T07:37:09.892Z,0.83
2023-04-12T07:39:43.160Z,0.90
2023-04-12T07:42:16.440Z,0.97
2023-04-12T07:44:49.624Z,0.83
2023-04-12T07:47:22.880Z,1.10
2023-04-12T07:49:57.467Z,0.60
2023-04-12T07:52:30.757Z,0.80
2023-04-12T07:55:03.975Z,1.27
2023-04-12T07:57:37.134Z,0.80
2023-04-12T08:00:11.200Z,0.90
2023-04-12T08:02:44.530Z,0.70
2023-04-12T08:05:17.878Z,0.80
2023-04-12T08:07:51.095Z,1.00
2023-04-12T08:10:24.260Z,1.00
2023-04-12T08:12:57.524Z,0.73
2023-04-12T08:15:30.876Z,1.20
2023-04-12T08:18:04.233Z,1.57
2023-04-12T08:20:40.394Z,1.07
2023-04-12T08:23:13.737Z,1.00
2023-04-12T08:25:47.165Z,0.90
2023-04-12T08:28:20.370Z,0.77
2023-04-12T08:30:53.590Z,0.80
2023-04-12T08:33:26.993Z,1.37
2023-04-12T08:36:00.747Z,0.73
2023-04-12T08:38:45.050Z,0.80
2023-04-12T08:41:20.737Z,0.80
2023-04-12T08:43:55.537Z,1.10
2023-04-12T08:46:30.101Z,0.67
2023-04-12T08:49:03.372Z,0.67
2023-04-12T08:51:37.776Z,0.77
2023-04-12T08:54:10.993Z,0.87
2023-04-12T08:56:44.857Z,0.67
2023-04-12T08:59:18.218Z,1.27
2023-04-12T09:01:51.976Z,0.80
2023-04-12T09:04:29.722Z,0.90
2023-04-12T09:07:03.117Z,1.10
2023-04-12T09:09:46.294Z,1.17
2023-04-12T09:12:24.235Z,0.90
2023-04-12T09:15:12.498Z,0.60
2023-04-12T09:17:49.129Z,0.97
2023-04-12T09:20:23.592Z,0.80
2023-04-12T09:22:57.251Z,1.53
2023-04-12T09:25:37.585Z,1.43
2023-04-12T09:28:24.242Z,1.17
2023-04-12T09:30:58.378Z,1.10
2023-04-12T09:33:35.865Z,0.80
2023-04-12T09:36:13.527Z,1.00
2023-04-12T09:39:04.194Z,1.00
2023-04-12T09:41:37.649Z,1.53
2023-04-12T09:44:10.937Z,1.00
2023-04-12T09:46:53.369Z,0.70
2023-04-12T09:49:41.420Z,1.00
2023-04-12T09:52:15.468Z,1.60
2023-04-12T09:54:49.055Z,0.60
2023-04-12T09:57:24.033Z,0.93
2023-04-12T09:59:58.448Z,0.90
2023-04-12T10:02:31.985Z,1.37
2023-04-12T10:05:06.135Z,1.37
2023-04-12T10:07:42.687Z,1.77
2023-04-12T10:10:17.171Z,0.67
2023-04-12T10:12:51.116Z,2.00
2023-04-12T10:15:25.524Z,1.53
2023-04-12T10:17:58.864Z,0.70
2023-04-12T10:20:32.592Z,1.00
2023-04-12T10:23:06.887Z,0.80
2023-04-12T10:25:42.755Z,1.27
2023-04-12T10:28:21.518Z,0.70
2023-04-12T10:30:57.921Z,1.67
2023-04-12T10:33:31.587Z,0.83
2023-04-12T10:36:08.613Z,1.00
2023-04-12T10:38:48.525Z,1.43
2023-04-12T10:41:22.408Z,0.90
2023-04-12T10:44:15.585Z,1.10
2023-04-12T10:46:49.137Z,0.70
2023-04-12T10:49:22.427Z,1.20
2023-04-12T10:52:02.411Z,1.60
2023-04-12T10:54:36.198Z,1.60
2023-04-12T10:57:29.865Z,1.53
2023-04-12T11:00:03.709Z,1.37
2023-04-12T11:02:57.247Z,1.67
2023-04-12T11:05:30.660Z,1.70
2023-04-12T11:08:03.958Z,2.13
2023-04-12T11:10:39.647Z,1.50
2023-04-12T11:13:15.456Z,1.60
2023-04-12T11:15:53.812Z,1.33
2023-04-12T11:18:27.213Z,1.30
2023-04-12T11:21:00.791Z,2.00
2023-04-12T11:23:36.221Z,1.77
2023-04-12T11:26:10.696Z,1.40
2023-04-12T11:28:43.868Z,2.07
2023-04-12T11:31:20.975Z,1.63
2023-04-12T11:33:54.160Z,1.63
2023-04-12T11:36:28.020Z,1.53
2023-04-12T11:39:01.353Z,1.30
2023-04-12T11:41:36.050Z,1.20
2023-04-12T11:44:10.185Z,2.33
2023-04-12T11:46:43.462Z,1.03
2023-04-12T11:49:17.307Z,1.17
2023-04-12T11:51:50.506Z,1.63
2023-04-12T11:54:29.286Z,2.10
2023-04-12T11:57:04.991Z,1.47
2023-04-12T11:59:38.877Z,1.60
2023-04-12T12:02:22.915Z,1.20
2023-04-12T12:04:57.684Z,1.63
2023-04-12T12:07:31.616Z,1.47
2023-04-12T12:10:05.346Z,1.20
2023-04-12T12:12:38.552Z,2.13
2023-04-12T12:15:11.846Z,1.67
2023-04-12T12:17:45.650Z,1.67
2023-04-12T12:20:22.113Z,1.47
2023-04-12T12:22:55.433Z,1.30
2023-04-12T12:25:29.957Z,1.53
2023-04-12T12:28:05.504Z,1.50
2023-04-12T12:30:40.162Z,1.70
2023-04-12T12:33:14.022Z,1.70
2023-04-12T12:35:47.393Z,1.50
2023-04-12T12:38:20.622Z,1.90
2023-04-12T12:40:53.942Z,1.73
2023-04-12T12:43:28.420Z,1.37
2023-04-12T12:46:01.588Z,1.07
2023-04-12T12:48:39.469Z,1.73
2023-04-12T12:51:13.389Z,1.60
2023-04-12T12:53:46.943Z,1.40
2023-04-12T12:56:20.105Z,1.60
2023-04-12T12:58:53.279Z,1.07
2023-04-12T13:01:27.625Z,1.30
2023-04-12T13:04:01.179Z,0.70
2023-04-12T13:06:34.946Z,1.37
2023-04-12T13:09:08.132Z,1.17
2023-04-12T13:11:41.308Z,1.77
2023-04-12T13:14:14.477Z,1.50
2023-04-12T13:16:49.255Z,1.20
2023-04-12T13:19:22.708Z,1.37
2023-04-12T13:21:56.557Z,0.70
2023-04-12T13:24:30.128Z,1.43
2023-04-12T13:27:03.394Z,1.20
2023-04-12T13:29:37.069Z,0.80
2023-04-12T13:32:10.435Z,1.33
2023-04-12T13:34:43.742Z,0.70
2023-04-12T13:37:16.967Z,1.00
2023-04-12T13:39:51.315Z,1.03
2023-04-12T13:42:24.738Z,1.40
2023-04-12T13:44:58.222Z,1.07
2023-04-12T13:47:33.603Z,1.50
2023-04-12T13:50:07.236Z,1.00
2023-04-12T13:52:40.540Z,0.93
2023-04-12T13:55:13.684Z,0.77
2023-04-12T13:57:46.995Z,0.80
2023-04-12T14:00:20.524Z,1.37
2023-04-12T14:02:54.098Z,0.77
2023-04-12T14:05:27.489Z,0.53
2023-04-12T14:08:00.879Z,1.00
2023-04-12T14:10:34.064Z,1.00
2023-04-12T14:13:07.237Z,1.97
2023-04-12T14:15:40.702Z,0.80
2023-04-12T14:18:13.910Z,0.80
2023-04-12T14:20:52.194Z,1.17
2023-04-12T14:23:26.141Z,1.10
2023-04-12T14:25:59.353Z,1.13
2023-04-12T14:28:33.625Z,1.27
2023-04-12T14:31:07.513Z,1.00
2023-04-12T14:33:40.896Z,1.30
2023-04-12T14:36:14.093Z,1.23
2023-04-12T14:38:48.723Z,1.20
2023-04-12T14:41:21.911Z,1.40
2023-04-12T14:43:55.193Z,1.07
2023-04-12T14:46:28.726Z,1.70
2023-04-12T14:49:02.097Z,1.00
2023-04-12T14:51:35.740Z,0.70
2023-04-12T14:54:08.915Z,1.63
2023-04-12T14:56:50.644Z,2.33
2023-04-12T14:59:27.437Z,1.37
2023-04-12T15:02:00.868Z,2.23
2023-04-12T15:04:34.405Z,1.27
2023-04-12T15:07:07.748Z,1.50
2023-04-12T15:09:40.906Z,2.30
2023-04-12T15:12:14.110Z,1.27
2023-04-12T15:14:47.392Z,1.40
2023-04-12T15:17:20.991Z,2.13
2023-04-12T15:19:54.207Z,3.47
2023-04-12T15:22:27.397Z,1.47
2023-04-12T15:25:02.170Z,1.67
2023-04-12T15:27:35.593Z,1.60
2023-04-12T15:30:10.899Z,1.20
2023-04-12T15:32:44.223Z,1.30
2023-04-12T15:35:26.019Z,1.67
2023-04-12T15:37:59.521Z,2.33
2023-04-12T15:40:32.708Z,1.00
2023-04-12T15:43:06.329Z,1.73
2023-04-12T15:45:42.757Z,0.87
2023-04-12T15:48:15.954Z,1.43
2023-04-12T15:50:49.639Z,1.10
2023-04-12T15:53:27.116Z,1.33
2023-04-12T15:56:00.590Z,1.63
2023-04-12T15:58:33.790Z,1.20
2023-04-12T16:01:07.262Z,1.40
2023-04-12T16:03:42.456Z,1.40
2023-04-12T16:06:22.942Z,1.50
2023-04-12T16:08:57.277Z,1.00
2023-04-12T16:11:33.912Z,1.10
2023-04-12T16:14:08.052Z,1.13
2023-04-12T16:16:41.271Z,1.07
2023-04-12T16:19:14.446Z,1.10
2023-04-12T16:21:48.371Z,1.53
2023-04-12T16:24:21.555Z,1.53
2023-04-12T16:26:54.738Z,1.10
2023-04-12T16:29:27.956Z,1.33
2023-04-12T16:32:01.250Z,1.30
2023-04-12T16:34:34.416Z,1.10
2023-04-12T16:37:07.748Z,1.50
2023-04-12T16:39:41.674Z,0.80
2023-04-12T16:42:15.596Z,0.80
2023-04-12T16:44:48.749Z,1.10
2023-04-12T16:47:22.129Z,1.40
2023-04-12T16:49:55.511Z,1.10
2023-04-12T16:52:28.713Z,1.00
2023-04-12T16:55:01.974Z,1.80
2023-04-12T16:57:35.176Z,1.03
2023-04-12T17:00:22.573Z,1.60
2023-04-12T17:02:55.889Z,1.73
2023-04-12T17:05:29.937Z,1.13
2023-04-12T17:08:05.503Z,0.80
2023-04-12T17:10:38.755Z,2.00
2023-04-12T17:13:11.966Z,1.30
2023-04-12T17:15:48.027Z,1.03
2023-04-12T17:18:21.467Z,1.47
2023-04-12T17:20:55.900Z,1.37
2023-04-12T17:23:29.240Z,1.07
2023-04-12T17:26:02.426Z,1.63
2023-04-12T17:28:38.854Z,1.87
2023-04-12T17:31:12.166Z,1.07
2023-04-12T17:33:45.415Z,1.20
2023-04-12T17:36:18.836Z,1.43
2023-04-12T17:38:52.453Z,1.93
2023-04-12T17:41:25.926Z,2.27
2023-04-12T17:44:00.071Z,1.70
2023-04-12T17:46:34.290Z,1.73
2023-04-12T17:49:08.984Z,2.17
2023-04-12T17:51:42.158Z,2.30
2023-04-12T17:54:15.348Z,2.17
2023-04-12T17:56:51.606Z,2.33
2023-04-12T17:59:25.286Z,1.60
2023-04-12T18:01:58.937Z,2.03
2023-04-12T18:04:32.427Z,1.90
2023-04-12T18:07:09.777Z,1.43
2023-04-12T18:09:44.852Z,1.50
2023-04-12T18:12:18.237Z,2.03
2023-04-12T18:14:51.421Z,1.07
2023-04-12T18:17:26.553Z,1.57
2023-04-12T18:20:02.581Z,2.17
2023-04-12T18:22:36.346Z,1.87
2023-04-12T18:25:11.517Z,1.60
2023-04-12T18:27:48.210Z,3.37
2023-04-12T18:30:21.645Z,1.40
2023-04-12T18:32:55.329Z,1.30
2023-04-12T18:35:28.557Z,1.50
2023-04-12T18:38:01.829Z,1.20
2023-04-12T18:40:38.762Z,1.50
2023-04-12T18:43:12.045Z,1.23
2023-04-12T18:45:45.209Z,1.63
2023-04-12T18:48:18.376Z,1.43
2023-04-12T18:50:51.674Z,1.27
2023-04-12T18:53:24.820Z,2.53
2023-04-12T18:56:07.492Z,1.37
2023-04-12T18:58:54.604Z,1.63
2023-04-12T19:01:29.160Z,1.40
2023-04-12T19:04:05.073Z,2.57
2023-04-12T19:06:38.512Z,2.10
2023-04-12T19:09:11.747Z,1.33
2023-04-12T19:11:45.708Z,1.90
2023-04-12T19:14:18.917Z,2.00
2023-04-12T19:16:53.040Z,2.00
2023-04-12T19:19:26.444Z,2.20
2023-04-12T19:21:59.645Z,1.73
2023-04-12T19:24:33.158Z,1.60
2023-04-12T19:27:06.648Z,2.40
2023-04-12T19:29:39.873Z,2.50
2023-04-12T19:32:13.156Z,3.07
2023-04-12T19:34:47.726Z,2.20
2023-04-12T19:37:21.451Z,3.30
2023-04-12T19:39:54.704Z,2.50
2023-04-12T19:42:28.036Z,2.10
2023-04-12T19:45:01.520Z,2.37
2023-04-12T19:47:34.744Z,2.70
2023-04-12T19:50:08.670Z,1.90
2023-04-12T19:52:44.878Z,1.67
2023-04-12T19:55:21.347Z,2.60
2023-04-12T19:57:56.642Z,2.40
2023-04-12T20:00:30.184Z,2.40
2023-04-12T20:03:03.457Z,2.70
2023-04-12T20:05:37.542Z,2.07
2023-04-12T20:08:10.824Z,3.10
2023-04-12T20:10:44.085Z,2.67
2023-04-12T20:13:17.280Z,3.00
2023-04-12T20:15:51.105Z,2.70
2023-04-12T20:18:24.367Z,2.67
2023-04-12T20:21:00.593Z,2.97
2023-04-12T20:23:33.751Z,2.53
2023-04-12T20:26:07.349Z,2.50
2023-04-12T20:28:41.339Z,2.97
2023-04-12T20:31:14.592Z,3.30
2023-04-12T20:33:47.851Z,2.70
2023-04-12T20:36:22.424Z,3.37
2023-04-12T20:38:55.999Z,2.83
2023-04-12T20:41:29.671Z,2.93
2023-04-12T20:44:02.835Z,3.40
2023-04-12T20:46:37.340Z,2.37
2023-04-12T20:49:10.982Z,2.50
2023-04-12T20:51:46.711Z,3.07
2023-04-12T20:54:19.904Z,2.43
2023-04-12T20:56:54.155Z,2.40
2023-04-12T20:59:30.190Z,2.90
2023-04-12T21:02:03.402Z,2.53
2023-04-12T21:04:36.785Z,2.90
2023-04-12T21:07:11.190Z,2.97
2023-04-12T21:09:44.419Z,2.90
2023-04-12T21:12:18.185Z,3.33
2023-04-12T21:14:51.420Z,2.60
2023-04-12T21:17:25.234Z,2.23
2023-04-12T21:19:59.125Z,3.30
2023-04-12T21:22:32.297Z,1.80
2023-04-12T21:25:07.241Z,3.23
2023-04-12T21:27:41.782Z,1.80
2023-04-12T21:30:15.654Z,2.67
2023-04-12T21:32:48.854Z,3.80
2023-04-12T21:35:23.105Z,3.40
2023-04-12T21:37:56.718Z,3.97
2023-04-12T21:40:29.945Z,2.30
2023-04-12T21:43:03.117Z,3.00
2023-04-12T21:45:36.428Z,2.30
2023-04-12T21:48:09.847Z,3.33
2023-04-12T21:50:43.042Z,4.37
2023-04-12T21:53:16.552Z,3.50
2023-04-12T21:55:50.635Z,3.03
2023-04-12T21:58:23.848Z,2.73
2023-04-12T22:00:58.274Z,4.07
2023-04-12T22:03:32.184Z,2.90
2023-04-12T22:06:05.712Z,4.60
2023-04-12T22:08:43.817Z,4.87
2023-04-12T22:11:17.001Z,3.60
2023-04-12T22:13:50.469Z,3.20
2023-04-12T22:16:24.635Z,3.80
2023-04-12T22:18:59.434Z,2.57
2023-04-12T22:21:33.425Z,3.97
2023-04-12T22:24:08.218Z,3.37
2023-04-12T22:26:41.379Z,3.90
2023-04-12T22:29:17.384Z,3.03
2023-04-12T22:31:51.159Z,3.17
2023-04-12T22:34:24.715Z,2.80
2023-04-12T22:37:03.264Z,3.60
2023-04-12T22:39:36.548Z,2.20
2023-04-12T22:42:09.699Z,4.00
2023-04-12T22:44:42.874Z,2.90
2023-04-12T22:47:16.225Z,3.60
2023-04-12T22:49:54.505Z,3.27
2023-04-12T22:52:30.529Z,2.63
2023-04-12T22:55:03.928Z,3.00
2023-04-12T22:57:37.141Z,2.90
2023-04-12T23:00:15.667Z,2.90
2023-04-12T23:02:50.271Z,3.70
2023-04-12T23:05:23.878Z,1.87
2023-04-12T23:07:57.206Z,2.27
2023-04-12T23:10:30.372Z,2.27
2023-04-12T23:13:04.242Z,2.83
2023-04-12T23:15:40.414Z,2.70
2023-04-12T23:18:13.705Z,1.73
2023-04-12T23:20:49.347Z,1.60
2023-04-12T23:23:24.627Z,1.57
2023-04-12T23:25:57.821Z,1.40
2023-04-12T23:28:31.055Z,2.40
2023-04-12T23:31:05.758Z,1.63
2023-04-12T23:33:39.024Z,2.00
2023-04-12T23:36:12.884Z,1.50
2023-04-12T23:38:46.157Z,2.30
2023-04-12T23:41:19.296Z,1.33
2023-04-12T23:43:55.243Z,1.40
2023-04-12T23:46:28.476Z,1.27
2023-04-12T23:49:01.759Z,2.50
2023-04-12T23:51:35.063Z,1.53
2023-04-12T23:54:08.298Z,2.30
2023-04-12T23:56:41.904Z,1.33
2023-04-12T23:59:15.080Z,1.00
